Flight Track Log - Related Links

Times and Time Zones

All times are in EDT time to prevent confusion due to time zone crossing. See the CHH7114 flight status page for this flight to view local times or setup timezone preferences in your user account.

Time Position Orientation Groundspeed Altitude Reporting Facility
EDT Latitude Longitude Course Direction KTS MPH feet Rate Location/Type
Wed 06:12:00 AM 31.6673 118.8074 212° Southwest  Level Estimated
Wed 06:13:00 AM 31.5925 118.7528 212° Southwest  Level Estimated
Wed 06:14:00 AM 31.5177 118.6983 212° Southwest  Level Estimated
Wed 06:15:00 AM 31.4428 118.6439 212° Southwest  Level Estimated
Wed 06:16:00 AM 31.3680 118.5895 212° Southwest  Level Estimated
Wed 06:17:00 AM 31.2931 118.5353 212° Southwest  Level Estimated
Wed 06:18:00 AM 31.2182 118.4811 212° Southwest  Level Estimated
Wed 06:19:00 AM 31.1432 118.4270 212° Southwest  Level Estimated
Wed 06:20:00 AM 31.0683 118.3731 212° Southwest  Level Estimated
Wed 06:21:00 AM 30.9933 118.3192 212° Southwest  Level Estimated
Wed 06:22:00 AM 30.9183 118.2654 212° Southwest  Level Estimated
Wed 06:23:00 AM 30.8433 118.2116 212° Southwest  Level Estimated
Wed 06:24:00 AM 30.7682 118.1580 212° Southwest  Level Estimated
Wed 06:25:00 AM 30.6932 118.1044 212° Southwest  Level Estimated
Wed 06:26:00 AM 30.6181 118.0509 212° Southwest  Level Estimated
Wed 06:27:00 AM 30.5430 117.9976 211° Southwest  Level Estimated
Wed 06:28:00 AM 30.4678 117.9442 211° Southwest  Level Estimated
Wed 06:29:00 AM 30.3927 117.8910 211° Southwest  Level Estimated
Wed 06:30:00 AM 30.3175 117.8379 211° Southwest  Level Estimated
Wed 06:31:00 AM 30.2423 117.7848 211° Southwest  Level Estimated
Wed 06:32:00 AM 30.1671 117.7318 211° Southwest  Level Estimated
Wed 06:33:00 AM 30.0919 117.6789 211° Southwest  Level Estimated
Wed 06:34:00 AM 30.0166 117.6261 211° Southwest  Level Estimated
Wed 06:35:00 AM 29.9413 117.5733 211° Southwest  Level Estimated
Wed 06:36:00 AM 29.8660 117.5207 211° Southwest  Level Estimated
Wed 06:37:00 AM 29.7907 117.4681 211° Southwest  Level Estimated
Wed 06:38:00 AM 29.7153 117.4156 211° Southwest  Level Estimated
Wed 06:39:00 AM 29.6400 117.3631 211° Southwest  Level Estimated
Wed 06:40:00 AM 29.5646 117.3108 211° Southwest  Level Estimated
Wed 06:41:00 AM 29.4892 117.2585 211° Southwest  Level Estimated
Wed 06:42:00 AM 29.4138 117.2063 211° Southwest  Level Estimated
Wed 06:43:00 AM 29.3383 117.1542 211° Southwest  Level Estimated
Wed 06:44:00 AM 29.2629 117.1022 211° Southwest  Level Estimated
Wed 06:45:00 AM 29.1874 117.0502 211° Southwest  Level Estimated
Wed 06:46:00 AM 29.1119 116.9983 211° Southwest  Level Estimated
Wed 06:47:00 AM 29.0363 116.9465 211° Southwest  Level Estimated
Wed 06:48:00 AM 28.9608 116.8948 211° Southwest  Level Estimated
Wed 06:49:00 AM 28.8852 116.8431 211° Southwest  Level Estimated
Wed 06:50:00 AM 28.8096 116.7915 211° Southwest  Level Estimated
Wed 06:51:00 AM 28.7340 116.7400 211° Southwest  Level Estimated
Wed 06:52:00 AM 28.6584 116.6886 211° Southwest  Level Estimated
Wed 06:53:00 AM 28.5828 116.6372 211° Southwest  Level Estimated
Wed 06:54:00 AM 28.5071 116.5859 211° Southwest  Level Estimated
Wed 06:55:00 AM 28.4314 116.5347 211° Southwest  Level Estimated
Wed 06:56:00 AM 28.3557 116.4836 211° Southwest  Level Estimated
Wed 06:57:00 AM 28.2800 116.4325 211° Southwest  Level Estimated
Wed 06:58:00 AM 28.2043 116.3815 211° Southwest  Level Estimated
Wed 06:59:00 AM 28.1285 116.3306 211° Southwest  Level Estimated
Wed 07:00:00 AM 28.0527 116.2798 211° Southwest  Level Estimated
Wed 07:01:00 AM 27.9769 116.2290 211° Southwest  Level Estimated
Wed 07:02:00 AM 27.9011 116.1783 211° Southwest  Level Estimated
Wed 07:03:00 AM 27.8253 116.1276 211° Southwest  Level Estimated
Wed 07:04:00 AM 27.7494 116.0771 211° Southwest  Level Estimated
Wed 07:05:00 AM 27.6736 116.0266 211° Southwest  Level Estimated
Wed 07:06:00 AM 27.5977 115.9762 210° Southwest  Level Estimated
Wed 07:07:00 AM 27.5218 115.9258 210° Southwest  Level Estimated
Wed 07:08:00 AM 27.4458 115.8755 210° Southwest  Level Estimated
Wed 07:09:00 AM 27.3699 115.8253 210° Southwest  Level Estimated
Wed 07:10:00 AM 27.2939 115.7751 210° Southwest  Level Estimated
Wed 07:11:00 AM 27.2180 115.7251 210° Southwest  Level Estimated
Wed 07:12:00 AM 27.1420 115.6751 210° Southwest  Level Estimated
Wed 07:13:00 AM 27.0660 115.6251 210° Southwest  Level Estimated
Wed 07:14:00 AM 26.9899 115.5752 210° Southwest  Level Estimated
Wed 07:15:00 AM 26.9139 115.5254 210° Southwest  Level Estimated
Wed 07:16:00 AM 26.8378 115.4757 210° Southwest  Level Estimated
Wed 07:17:00 AM 26.7617 115.4260 210° Southwest  Level Estimated
Wed 07:18:00 AM 26.6856 115.3764 210° Southwest  Level Estimated
Wed 07:19:00 AM 26.6095 115.3269 210° Southwest  Level Estimated
Wed 07:20:00 AM 26.5334 115.2774 210° Southwest  Level Estimated
Wed 07:21:00 AM 26.4572 115.2280 210° Southwest  Level Estimated
Wed 07:22:00 AM 26.3810 115.1786 210° Southwest  Level Estimated
Wed 07:23:00 AM 26.3048 115.1294 210° Southwest  Level Estimated
Wed 07:24:00 AM 26.2286 115.0801 210° Southwest  Level Estimated
Wed 07:25:00 AM 26.1524 115.0310 210° Southwest  Level Estimated
Wed 07:26:00 AM 26.0762 114.9819 210° Southwest  Level Estimated
Wed 07:27:00 AM 25.9999 114.9329 210° Southwest  Level Estimated
Wed 07:28:00 AM 25.9237 114.8839 210° Southwest  Level Estimated
Wed 07:29:00 AM 25.8474 114.8350 210° Southwest  Level Estimated
Wed 07:30:00 AM 25.7711 114.7862 210° Southwest  Level Estimated
Wed 07:31:00 AM 25.6948 114.7374 210° Southwest  Level Estimated
Wed 07:32:00 AM 25.6184 114.6887 210° Southwest  Level Estimated
Wed 07:33:00 AM 25.5421 114.6401 210° Southwest  Level Estimated
Wed 07:34:00 AM 25.4657 114.5915 210° Southwest  Level Estimated
Wed 07:35:00 AM 25.3893 114.5430 210° Southwest  Level Estimated
Wed 07:36:00 AM 25.3129 114.4945 210° Southwest  Level Estimated
Wed 07:37:00 AM 25.2365 114.4461 210° Southwest  Level Estimated
Wed 07:38:00 AM 25.1601 114.3978 210° Southwest  Level Estimated
Wed 07:39:00 AM 25.0836 114.3495 210° Southwest  Level Estimated
Wed 07:40:00 AM 25.0072 114.3013 210° Southwest  Level Estimated
Wed 07:41:00 AM 24.9307 114.2531 210° Southwest  Level Estimated
Wed 07:42:00 AM 24.8542 114.2050 210° Southwest  Level Estimated
Wed 07:43:00 AM 24.7777 114.1570 210° Southwest  Level Estimated
Wed 07:44:00 AM 24.7012 114.1090 210° Southwest  Level Estimated
Wed 07:45:00 AM 24.6246 114.0611 210° Southwest  Level Estimated
Wed 07:46:00 AM 24.5481 114.0132 210° Southwest  Level Estimated
Wed 07:47:00 AM 24.4715 113.9654 210° Southwest  Level Estimated
Wed 07:48:00 AM 24.3949 113.9177 210° Southwest  Level Estimated
Wed 07:49:00 AM 24.3183 113.8700 210° Southwest  Level Estimated
Wed 07:50:00 AM 24.2417 113.8224 210° Southwest  Level Estimated
Wed 07:51:00 AM 24.1651 113.7748 210° Southwest  Level Estimated
Wed 07:52:00 AM 24.0884 113.7273 210° Southwest  Level Estimated
Wed 07:53:00 AM 24.0118 113.6798 209° Southwest  Level Estimated
Wed 07:54:00 AM 23.9351 113.6324 209° Southwest  Level Estimated
Wed 07:55:00 AM 23.8584 113.5851 209° Southwest  Level Estimated
Wed 07:56:00 AM 23.7817 113.5378 209° Southwest  Level Estimated
Wed 07:57:00 AM 23.7050 113.4906 209° Southwest  Level Estimated
Wed 07:58:00 AM 23.6283 113.4434 209° Southwest  Level Estimated
Wed 07:59:00 AM 23.5515 113.3963 209° Southwest  Level Estimated
Wed 08:00:00 AM 23.4748 113.3492 209° Southwest  Level Estimated
Wed 08:01:00 AM 23.3980 113.3022 209° Southwest  Level Estimated
Wed 08:02:00 AM 23.3924 113.2988 209° Southwest  Level Estimated
Wed 08:03:00 AM 23.3924 113.2988 North  Level Estimated
Wed 08:04:00 AM 23.3924 113.2988 North  Level Estimated
Wed 08:05:00 AM 23.3924 113.2988 North  Level Estimated
Wed 08:06:00 AM 23.3924 113.2988 North  Level Estimated
Wed 08:07:00 AM 23.3924 113.2988 North  Level Estimated
Wed 08:08:00 AM 23.3924 113.2988 North  Level Estimated
Wed 08:09:00 AM 23.3924 113.2988 North  Level Estimated
Wed 08:10:00 AM 23.3924 113.2988 North  Level Estimated
Wed 08:11:00 AM 23.3924 113.2988 North  Level Estimated
Wed 08:12:00 AM 23.3924 113.2988 North  Level Estimated
Wed 08:13:00 AM 23.3924 113.2988 North  Level Estimated
Wed 08:14:00 AM 23.3924 113.2988 North  Level Estimated
Wed 08:15:00 AM 23.3924 113.2988 North  Level Estimated
Wed 08:16:00 AM 23.3924 113.2988 North  Level Estimated
Wed 08:17:00 AM 23.3924 113.2988 North  Level Estimated

Login

Don't have an account? Register now (free) for customized features, flight alerts, and more!